sensor_id;sensor_type;location;lat;lon;timestamp;pressure;altitude;pressure_sealevel;temperature
37536;BMP180;23379;51.554;6.736;2024-03-23T00:53:02;100484.00;;;7.20
37536;BMP180;23379;51.554;6.736;2024-03-23T00:55:28;100476.00;;;7.20
37536;BMP180;23379;51.554;6.736;2024-03-23T00:57:53;100488.00;;;7.50
37536;BMP180;23379;51.554;6.736;2024-03-23T01:00:18;100476.00;;;7.30
37536;BMP180;23379;51.554;6.736;2024-03-23T01:02:44;100465.00;;;7.00
37536;BMP180;23379;51.554;6.736;2024-03-23T01:05:09;100476.00;;;7.30
37536;BMP180;23379;51.554;6.736;2024-03-23T01:07:34;100481.00;;;7.40
37536;BMP180;23379;51.554;6.736;2024-03-23T01:10:00;100461.00;;;7.30
37536;BMP180;23379;51.554;6.736;2024-03-23T01:12:25;100459.00;;;7.30
37536;BMP180;23379;51.554;6.736;2024-03-23T01:14:50;100450.00;;;7.30
37536;BMP180;23379;51.554;6.736;2024-03-23T01:17:16;100419.00;;;7.30
37536;BMP180;23379;51.554;6.736;2024-03-23T01:19:41;100427.00;;;7.40
37536;BMP180;23379;51.554;6.736;2024-03-23T01:22:07;100423.00;;;7.40
37536;BMP180;23379;51.554;6.736;2024-03-23T01:24:32;100425.00;;;7.60
37536;BMP180;23379;51.554;6.736;2024-03-23T01:26:58;100420.00;;;7.50
37536;BMP180;23379;51.554;6.736;2024-03-23T01:29:23;100396.00;;;7.50
37536;BMP180;23379;51.554;6.736;2024-03-23T01:31:48;100409.00;;;7.50
37536;BMP180;23379;51.554;6.736;2024-03-23T01:34:14;100421.00;;;7.60
37536;BMP180;23379;51.554;6.736;2024-03-23T01:36:39;100405.00;;;7.50
37536;BMP180;23379;51.554;6.736;2024-03-23T01:39:05;100403.00;;;7.50
37536;BMP180;23379;51.554;6.736;2024-03-23T01:41:30;100403.00;;;7.40
37536;BMP180;23379;51.554;6.736;2024-03-23T01:43:56;100400.00;;;7.70
37536;BMP180;23379;51.554;6.736;2024-03-23T01:46:22;100414.00;;;7.70
37536;BMP180;23379;51.554;6.736;2024-03-23T01:48:47;100417.00;;;7.50
37536;BMP180;23379;51.554;6.736;2024-03-23T01:51:13;100398.00;;;7.50
37536;BMP180;23379;51.554;6.736;2024-03-23T01:53:39;100407.00;;;7.50
37536;BMP180;23379;51.554;6.736;2024-03-23T01:56:05;100398.00;;;7.70
37536;BMP180;23379;51.554;6.736;2024-03-23T01:58:30;100395.00;;;7.80
37536;BMP180;23379;51.554;6.736;2024-03-23T02:00:57;100397.00;;;7.90
37536;BMP180;23379;51.554;6.736;2024-03-23T02:03:25;100410.00;;;7.50
37536;BMP180;23379;51.554;6.736;2024-03-23T02:05:52;100395.00;;;7.50
37536;BMP180;23379;51.554;6.736;2024-03-23T02:08:20;100400.00;;;7.60
37536;BMP180;23379;51.554;6.736;2024-03-23T02:10:45;100399.00;;;7.50
37536;BMP180;23379;51.554;6.736;2024-03-23T02:13:10;100408.00;;;7.60
37536;BMP180;23379;51.554;6.736;2024-03-23T02:15:36;100412.00;;;7.50
37536;BMP180;23379;51.554;6.736;2024-03-23T02:18:01;100414.00;;;7.60
37536;BMP180;23379;51.554;6.736;2024-03-23T02:20:27;100394.00;;;7.50
37536;BMP180;23379;51.554;6.736;2024-03-23T02:22:53;100411.00;;;7.60
37536;BMP180;23379;51.554;6.736;2024-03-23T02:25:18;100393.00;;;7.80
37536;BMP180;23379;51.554;6.736;2024-03-23T02:27:44;100391.00;;;7.70
37536;BMP180;23379;51.554;6.736;2024-03-23T02:30:09;100396.00;;;7.60
37536;BMP180;23379;51.554;6.736;2024-03-23T02:32:35;100396.00;;;7.70
37536;BMP180;23379;51.554;6.736;2024-03-23T02:35:00;100395.00;;;7.70
37536;BMP180;23379;51.554;6.736;2024-03-23T02:37:26;100410.00;;;7.70
37536;BMP180;23379;51.554;6.736;2024-03-23T02:39:51;100405.00;;;7.70
37536;BMP180;23379;51.554;6.736;2024-03-23T02:42:16;100413.00;;;7.50
37536;BMP180;23379;51.554;6.736;2024-03-23T02:44:44;100398.00;;;7.40
37536;BMP180;23379;51.554;6.736;2024-03-23T02:47:10;100385.00;;;7.40
37536;BMP180;23379;51.554;6.736;2024-03-23T02:49:35;100394.00;;;7.20
37536;BMP180;23379;51.554;6.736;2024-03-23T02:52:00;100400.00;;;7.10
37536;BMP180;23379;51.554;6.736;2024-03-23T02:54:26;100399.00;;;6.90
37536;BMP180;23379;51.554;6.736;2024-03-23T02:56:51;100397.00;;;6.90
37536;BMP180;23379;51.554;6.736;2024-03-23T02:59:16;100393.00;;;6.90
37536;BMP180;23379;51.554;6.736;2024-03-23T03:01:42;100405.00;;;6.80
37536;BMP180;23379;51.554;6.736;2024-03-23T03:04:07;100395.00;;;6.70
37536;BMP180;23379;51.554;6.736;2024-03-23T03:06:33;100387.00;;;6.80
37536;BMP180;23379;51.554;6.736;2024-03-23T03:08:58;100374.00;;;6.60
37536;BMP180;23379;51.554;6.736;2024-03-23T03:11:23;100373.00;;;6.60
37536;BMP180;23379;51.554;6.736;2024-03-23T03:13:49;100376.00;;;6.70
37536;BMP180;23379;51.554;6.736;2024-03-23T03:16:14;100367.00;;;6.90
37536;BMP180;23379;51.554;6.736;2024-03-23T03:18:39;100378.00;;;6.90
37536;BMP180;23379;51.554;6.736;2024-03-23T03:21:09;100376.00;;;6.80
37536;BMP180;23379;51.554;6.736;2024-03-23T03:23:37;100393.00;;;6.50
37536;BMP180;23379;51.554;6.736;2024-03-23T03:26:03;100395.00;;;6.80
37536;BMP180;23379;51.554;6.736;2024-03-23T03:28:28;100389.00;;;6.80
37536;BMP180;23379;51.554;6.736;2024-03-23T03:30:56;100391.00;;;6.80
37536;BMP180;23379;51.554;6.736;2024-03-23T03:33:22;100374.00;;;6.90
37536;BMP180;23379;51.554;6.736;2024-03-23T03:35:47;100376.00;;;6.90
37536;BMP180;23379;51.554;6.736;2024-03-23T03:38:12;100366.00;;;6.60
37536;BMP180;23379;51.554;6.736;2024-03-23T03:40:38;100365.00;;;6.80
37536;BMP180;23379;51.554;6.736;2024-03-23T03:43:03;100362.00;;;6.80
37536;BMP180;23379;51.554;6.736;2024-03-23T03:45:29;100345.00;;;6.60
37536;BMP180;23379;51.554;6.736;2024-03-23T03:47:54;100370.00;;;6.60
37536;BMP180;23379;51.554;6.736;2024-03-23T03:50:21;100358.00;;;6.50
37536;BMP180;23379;51.554;6.736;2024-03-23T03:52:46;100379.00;;;6.50
37536;BMP180;23379;51.554;6.736;2024-03-23T03:55:16;100372.00;;;6.40
37536;BMP180;23379;51.554;6.736;2024-03-23T03:57:41;100385.00;;;6.70
37536;BMP180;23379;51.554;6.736;2024-03-23T04:00:07;100339.00;;;6.50
37536;BMP180;23379;51.554;6.736;2024-03-23T04:02:39;100348.00;;;6.60
37536;BMP180;23379;51.554;6.736;2024-03-23T04:05:05;100366.00;;;6.50
37536;BMP180;23379;51.554;6.736;2024-03-23T04:07:30;100346.00;;;6.60
37536;BMP180;23379;51.554;6.736;2024-03-23T04:09:56;100350.00;;;6.40
37536;BMP180;23379;51.554;6.736;2024-03-23T04:12:21;100360.00;;;6.40
37536;BMP180;23379;51.554;6.736;2024-03-23T04:14:47;100363.00;;;6.40
37536;BMP180;23379;51.554;6.736;2024-03-23T04:17:12;100355.00;;;6.40
37536;BMP180;23379;51.554;6.736;2024-03-23T04:19:37;100349.00;;;6.20
37536;BMP180;23379;51.554;6.736;2024-03-23T04:22:03;100353.00;;;6.30
37536;BMP180;23379;51.554;6.736;2024-03-23T04:24:29;100366.00;;;6.60
37536;BMP180;23379;51.554;6.736;2024-03-23T04:26:54;100352.00;;;6.50
37536;BMP180;23379;51.554;6.736;2024-03-23T04:29:20;100357.00;;;6.70
37536;BMP180;23379;51.554;6.736;2024-03-23T04:31:45;100344.00;;;6.90
37536;BMP180;23379;51.554;6.736;2024-03-23T04:34:11;100346.00;;;6.90
37536;BMP180;23379;51.554;6.736;2024-03-23T04:36:36;100338.00;;;6.70
37536;BMP180;23379;51.554;6.736;2024-03-23T04:39:02;100347.00;;;6.80
37536;BMP180;23379;51.554;6.736;2024-03-23T04:41:27;100350.00;;;6.70
37536;BMP180;23379;51.554;6.736;2024-03-23T04:43:53;100351.00;;;6.50
37536;BMP180;23379;51.554;6.736;2024-03-23T04:46:18;100344.00;;;6.70
37536;BMP180;23379;51.554;6.736;2024-03-23T04:48:44;100344.00;;;6.50
37536;BMP180;23379;51.554;6.736;2024-03-23T04:51:10;100322.00;;;6.60
37536;BMP180;23379;51.554;6.736;2024-03-23T04:53:37;100342.00;;;6.60
37536;BMP180;23379;51.554;6.736;2024-03-23T04:56:03;100350.00;;;6.70
37536;BMP180;23379;51.554;6.736;2024-03-23T04:58:29;100341.00;;;6.60
37536;BMP180;23379;51.554;6.736;2024-03-23T05:00:55;100349.00;;;6.60
37536;BMP180;23379;51.554;6.736;2024-03-23T05:03:21;100351.00;;;6.60
37536;BMP180;23379;51.554;6.736;2024-03-23T05:05:50;100349.00;;;6.70
37536;BMP180;23379;51.554;6.736;2024-03-23T05:08:16;100364.00;;;6.80
37536;BMP180;23379;51.554;6.736;2024-03-23T05:10:42;100345.00;;;6.60
37536;BMP180;23379;51.554;6.736;2024-03-23T05:13:08;100346.00;;;6.60
37536;BMP180;23379;51.554;6.736;2024-03-23T05:15:33;100357.00;;;6.70
37536;BMP180;23379;51.554;6.736;2024-03-23T05:17:59;100351.00;;;6.80
37536;BMP180;23379;51.554;6.736;2024-03-23T05:20:24;100355.00;;;6.90
37536;BMP180;23379;51.554;6.736;2024-03-23T05:22:50;100351.00;;;6.90
37536;BMP180;23379;51.554;6.736;2024-03-23T05:25:15;100366.00;;;6.70
37536;BMP180;23379;51.554;6.736;2024-03-23T05:27:41;100375.00;;;6.90
37536;BMP180;23379;51.554;6.736;2024-03-23T05:30:07;100383.00;;;7.00
37536;BMP180;23379;51.554;6.736;2024-03-23T05:32:34;100362.00;;;6.80
37536;BMP180;23379;51.554;6.736;2024-03-23T05:34:59;100367.00;;;6.80
37536;BMP180;23379;51.554;6.736;2024-03-23T05:37:24;100367.00;;;6.70
37536;BMP180;23379;51.554;6.736;2024-03-23T05:39:51;100363.00;;;6.70
37536;BMP180;23379;51.554;6.736;2024-03-23T05:42:18;100362.00;;;6.70
37536;BMP180;23379;51.554;6.736;2024-03-23T05:44:45;100376.00;;;6.70
37536;BMP180;23379;51.554;6.736;2024-03-23T05:47:10;100349.00;;;6.60
37536;BMP180;23379;51.554;6.736;2024-03-23T05:49:37;100355.00;;;6.50
37536;BMP180;23379;51.554;6.736;2024-03-23T05:52:03;100356.00;;;6.50
37536;BMP180;23379;51.554;6.736;2024-03-23T05:54:29;100363.00;;;6.40
37536;BMP180;23379;51.554;6.736;2024-03-23T05:56:55;100366.00;;;6.30
37536;BMP180;23379;51.554;6.736;2024-03-23T05:59:21;100365.00;;;6.10
37536;BMP180;23379;51.554;6.736;2024-03-23T06:01:47;100350.00;;;6.00
37536;BMP180;23379;51.554;6.736;2024-03-23T06:04:12;100366.00;;;6.00
37536;BMP180;23379;51.554;6.736;2024-03-23T06:06:39;100361.00;;;6.00
37536;BMP180;23379;51.554;6.736;2024-03-23T06:09:04;100376.00;;;5.90
37536;BMP180;23379;51.554;6.736;2024-03-23T06:11:30;100378.00;;;5.90
37536;BMP180;23379;51.554;6.736;2024-03-23T06:13:56;100385.00;;;5.90
37536;BMP180;23379;51.554;6.736;2024-03-23T06:16:21;100376.00;;;5.80
37536;BMP180;23379;51.554;6.736;2024-03-23T06:18:50;100391.00;;;5.80
37536;BMP180;23379;51.554;6.736;2024-03-23T06:21:16;100373.00;;;6.10
37536;BMP180;23379;51.554;6.736;2024-03-23T06:23:42;100382.00;;;6.10
37536;BMP180;23379;51.554;6.736;2024-03-23T06:26:08;100382.00;;;6.40
37536;BMP180;23379;51.554;6.736;2024-03-23T06:28:33;100377.00;;;7.10
37536;BMP180;23379;51.554;6.736;2024-03-23T06:30:59;100375.00;;;7.20
37536;BMP180;23379;51.554;6.736;2024-03-23T06:33:24;100385.00;;;7.10
37536;BMP180;23379;51.554;6.736;2024-03-23T06:35:51;100386.00;;;6.50
37536;BMP180;23379;51.554;6.736;2024-03-23T06:38:17;100381.00;;;6.70
37536;BMP180;23379;51.554;6.736;2024-03-23T06:40:43;100385.00;;;6.50
37536;BMP180;23379;51.554;6.736;2024-03-23T06:43:13;100388.00;;;6.50
37536;BMP180;23379;51.554;6.736;2024-03-23T06:45:38;100383.00;;;6.70
37536;BMP180;23379;51.554;6.736;2024-03-23T06:48:04;100372.00;;;6.70
37536;BMP180;23379;51.554;6.736;2024-03-23T06:50:33;100368.00;;;6.70
37536;BMP180;23379;51.554;6.736;2024-03-23T06:52:58;100382.00;;;6.60
37536;BMP180;23379;51.554;6.736;2024-03-23T06:55:24;100386.00;;;6.60
37536;BMP180;23379;51.554;6.736;2024-03-23T06:57:51;100389.00;;;6.70
37536;BMP180;23379;51.554;6.736;2024-03-23T07:00:17;100387.00;;;6.80
37536;BMP180;23379;51.554;6.736;2024-03-23T07:02:43;100400.00;;;7.30
37536;BMP180;23379;51.554;6.736;2024-03-23T07:05:09;100382.00;;;7.30
37536;BMP180;23379;51.554;6.736;2024-03-23T07:07:34;100387.00;;;7.50
37536;BMP180;23379;51.554;6.736;2024-03-23T07:10:00;100377.00;;;7.50
37536;BMP180;23379;51.554;6.736;2024-03-23T07:12:25;100385.00;;;7.50
37536;BMP180;23379;51.554;6.736;2024-03-23T07:14:51;100396.00;;;7.40
37536;BMP180;23379;51.554;6.736;2024-03-23T07:17:16;100385.00;;;7.50
37536;BMP180;23379;51.554;6.736;2024-03-23T07:19:43;100390.00;;;7.60
37536;BMP180;23379;51.554;6.736;2024-03-23T07:22:09;100376.00;;;7.90
37536;BMP180;23379;51.554;6.736;2024-03-23T07:24:35;100369.00;;;8.00
37536;BMP180;23379;51.554;6.736;2024-03-23T07:27:01;100377.00;;;7.70
37536;BMP180;23379;51.554;6.736;2024-03-23T07:29:28;100389.00;;;7.80
37536;BMP180;23379;51.554;6.736;2024-03-23T07:31:54;100374.00;;;8.00
37536;BMP180;23379;51.554;6.736;2024-03-23T07:34:20;100374.00;;;8.10
37536;BMP180;23379;51.554;6.736;2024-03-23T07:36:45;100371.00;;;8.10
37536;BMP180;23379;51.554;6.736;2024-03-23T07:39:11;100378.00;;;8.30
37536;BMP180;23379;51.554;6.736;2024-03-23T07:41:37;100389.00;;;8.40
37536;BMP180;23379;51.554;6.736;2024-03-23T07:44:06;100389.00;;;8.80
37536;BMP180;23379;51.554;6.736;2024-03-23T07:46:31;100371.00;;;8.70
37536;BMP180;23379;51.554;6.736;2024-03-23T07:48:56;100380.00;;;8.70
37536;BMP180;23379;51.554;6.736;2024-03-23T07:51:22;100377.00;;;8.60
37536;BMP180;23379;51.554;6.736;2024-03-23T07:53:48;100380.00;;;8.70
37536;BMP180;23379;51.554;6.736;2024-03-23T07:56:14;100391.00;;;8.60
37536;BMP180;23379;51.554;6.736;2024-03-23T07:58:40;100376.00;;;8.50
37536;BMP180;23379;51.554;6.736;2024-03-23T08:01:08;100380.00;;;8.70
37536;BMP180;23379;51.554;6.736;2024-03-23T08:03:37;100383.00;;;8.70
37536;BMP180;23379;51.554;6.736;2024-03-23T08:06:13;100394.00;;;8.90
37536;BMP180;23379;51.554;6.736;2024-03-23T08:08:39;100406.00;;;8.90
37536;BMP180;23379;51.554;6.736;2024-03-23T08:11:06;100375.00;;;9.10
37536;BMP180;23379;51.554;6.736;2024-03-23T08:13:32;100397.00;;;9.10
37536;BMP180;23379;51.554;6.736;2024-03-23T08:15:58;100409.00;;;9.40
37536;BMP180;23379;51.554;6.736;2024-03-23T08:18:24;100388.00;;;9.30
37536;BMP180;23379;51.554;6.736;2024-03-23T08:21:03;100396.00;;;9.10
37536;BMP180;23379;51.554;6.736;2024-03-23T08:23:29;100389.00;;;9.20
37536;BMP180;23379;51.554;6.736;2024-03-23T08:25:58;100397.00;;;9.30
37536;BMP180;23379;51.554;6.736;2024-03-23T08:28:24;100409.00;;;8.80
37536;BMP180;23379;51.554;6.736;2024-03-23T08:30:50;100395.00;;;8.80
37536;BMP180;23379;51.554;6.736;2024-03-23T08:33:16;100383.00;;;8.70
37536;BMP180;23379;51.554;6.736;2024-03-23T08:35:42;100398.00;;;9.40
37536;BMP180;23379;51.554;6.736;2024-03-23T08:38:07;100391.00;;;9.60
37536;BMP180;23379;51.554;6.736;2024-03-23T08:40:33;100388.00;;;9.50
37536;BMP180;23379;51.554;6.736;2024-03-23T08:42:58;100387.00;;;9.30
37536;BMP180;23379;51.554;6.736;2024-03-23T08:45:26;100394.00;;;9.70
37536;BMP180;23379;51.554;6.736;2024-03-23T08:47:52;100386.00;;;10.00
37536;BMP180;23379;51.554;6.736;2024-03-23T08:50:17;100388.00;;;9.70
37536;BMP180;23379;51.554;6.736;2024-03-23T08:52:43;100391.00;;;9.70
37536;BMP180;23379;51.554;6.736;2024-03-23T08:55:08;100389.00;;;11.50
37536;BMP180;23379;51.554;6.736;2024-03-23T08:57:35;100391.00;;;11.50
37536;BMP180;23379;51.554;6.736;2024-03-23T09:00:00;100399.00;;;10.90
37536;BMP180;23379;51.554;6.736;2024-03-23T09:02:25;100399.00;;;10.60
37536;BMP180;23379;51.554;6.736;2024-03-23T09:04:51;100408.00;;;11.20
37536;BMP180;23379;51.554;6.736;2024-03-23T09:07:16;100395.00;;;11.50
37536;BMP180;23379;51.554;6.736;2024-03-23T09:09:41;100404.00;;;11.40
37536;BMP180;23379;51.554;6.736;2024-03-23T09:12:07;100396.00;;;11.80
37536;BMP180;23379;51.554;6.736;2024-03-23T09:14:33;100408.00;;;11.90
37536;BMP180;23379;51.554;6.736;2024-03-23T09:16:58;100396.00;;;11.60
37536;BMP180;23379;51.554;6.736;2024-03-23T09:19:27;100403.00;;;10.60
37536;BMP180;23379;51.554;6.736;2024-03-23T09:21:53;100410.00;;;10.10
37536;BMP180;23379;51.554;6.736;2024-03-23T09:24:18;100411.00;;;11.00
37536;BMP180;23379;51.554;6.736;2024-03-23T09:26:43;100414.00;;;10.50
37536;BMP180;23379;51.554;6.736;2024-03-23T09:29:09;100404.00;;;10.10
37536;BMP180;23379;51.554;6.736;2024-03-23T09:31:34;100402.00;;;10.30
37536;BMP180;23379;51.554;6.736;2024-03-23T09:33:59;100400.00;;;12.00
37536;BMP180;23379;51.554;6.736;2024-03-23T09:36:25;100416.00;;;12.90
37536;BMP180;23379;51.554;6.736;2024-03-23T09:38:50;100405.00;;;12.00
37536;BMP180;23379;51.554;6.736;2024-03-23T09:41:16;100407.00;;;10.50
37536;BMP180;23379;51.554;6.736;2024-03-23T09:43:41;100399.00;;;10.20
37536;BMP180;23379;51.554;6.736;2024-03-23T09:46:07;100404.00;;;10.70
37536;BMP180;23379;51.554;6.736;2024-03-23T09:48:33;100391.00;;;11.40
37536;BMP180;23379;51.554;6.736;2024-03-23T09:50:58;100407.00;;;13.20
37536;BMP180;23379;51.554;6.736;2024-03-23T09:53:24;100400.00;;;14.10
37536;BMP180;23379;51.554;6.736;2024-03-23T09:55:49;100386.00;;;13.90
37536;BMP180;23379;51.554;6.736;2024-03-23T09:58:17;100393.00;;;13.60
37536;BMP180;23379;51.554;6.736;2024-03-23T10:00:43;100373.00;;;12.50
37536;BMP180;23379;51.554;6.736;2024-03-23T10:03:08;100375.00;;;11.00
37536;BMP180;23379;51.554;6.736;2024-03-23T10:05:36;100379.00;;;9.90
37536;BMP180;23379;51.554;6.736;2024-03-23T10:10:40;100377.00;;;9.80
37536;BMP180;23379;51.554;6.736;2024-03-23T10:13:05;100372.00;;;11.20
37536;BMP180;23379;51.554;6.736;2024-03-23T10:15:34;100370.00;;;12.80
37536;BMP180;23379;51.554;6.736;2024-03-23T10:20:40;100374.00;;;13.80
37536;BMP180;23379;51.554;6.736;2024-03-23T10:23:15;100373.00;;;14.10
37536;BMP180;23379;51.554;6.736;2024-03-23T10:25:41;100366.00;;;13.50
37536;BMP180;23379;51.554;6.736;2024-03-23T10:28:06;100363.00;;;12.50
37536;BMP180;23379;51.554;6.736;2024-03-23T10:30:32;100377.00;;;11.90
37536;BMP180;23379;51.554;6.736;2024-03-23T10:33:10;100392.00;;;11.00
37536;BMP180;23379;51.554;6.736;2024-03-23T10:35:39;100376.00;;;10.00
37536;BMP180;23379;51.554;6.736;2024-03-23T10:38:06;100392.00;;;9.50
37536;BMP180;23379;51.554;6.736;2024-03-23T10:40:34;100392.00;;;8.50
37536;BMP180;23379;51.554;6.736;2024-03-23T10:42:59;100369.00;;;7.80
37536;BMP180;23379;51.554;6.736;2024-03-23T10:45:25;100394.00;;;7.70
37536;BMP180;23379;51.554;6.736;2024-03-23T10:47:51;100396.00;;;7.70
37536;BMP180;23379;51.554;6.736;2024-03-23T10:50:17;100404.00;;;8.70
37536;BMP180;23379;51.554;6.736;2024-03-23T10:52:46;100411.00;;;10.50
37536;BMP180;23379;51.554;6.736;2024-03-23T10:55:12;100403.00;;;11.00
37536;BMP180;23379;51.554;6.736;2024-03-23T10:57:42;100396.00;;;11.60
37536;BMP180;23379;51.554;6.736;2024-03-23T11:00:11;100403.00;;;14.00
37536;BMP180;23379;51.554;6.736;2024-03-23T11:02:37;100406.00;;;14.40
37536;BMP180;23379;51.554;6.736;2024-03-23T11:05:31;100403.00;;;13.60
37536;BMP180;23379;51.554;6.736;2024-03-23T11:07:57;100399.00;;;13.50
37536;BMP180;23379;51.554;6.736;2024-03-23T11:12:53;100363.00;;;14.00
37536;BMP180;23379;51.554;6.736;2024-03-23T11:15:18;100368.00;;;14.10
37536;BMP180;23379;51.554;6.736;2024-03-23T11:18:03;100376.00;;;14.60
37536;BMP180;23379;51.554;6.736;2024-03-23T11:20:32;100395.00;;;14.20
37536;BMP180;23379;51.554;6.736;2024-03-23T11:22:59;100390.00;;;14.50
37536;BMP180;23379;51.554;6.736;2024-03-23T11:25:26;100375.00;;;13.60
37536;BMP180;23379;51.554;6.736;2024-03-23T11:27:53;100382.00;;;13.80
37536;BMP180;23379;51.554;6.736;2024-03-23T11:32:49;100378.00;;;14.50
37536;BMP180;23379;51.554;6.736;2024-03-23T11:35:32;100364.00;;;13.70
37536;BMP180;23379;51.554;6.736;2024-03-23T11:40:28;100361.00;;;13.40
37536;BMP180;23379;51.554;6.736;2024-03-23T11:43:05;100365.00;;;13.30
37536;BMP180;23379;51.554;6.736;2024-03-23T11:45:35;100358.00;;;13.60
37536;BMP180;23379;51.554;6.736;2024-03-23T11:48:11;100371.00;;;13.40
37536;BMP180;23379;51.554;6.736;2024-03-23T11:50:41;100346.00;;;11.90
37536;BMP180;23379;51.554;6.736;2024-03-23T11:55:51;100378.00;;;8.80
37536;BMP180;23379;51.554;6.736;2024-03-23T11:58:18;100384.00;;;9.00
37536;BMP180;23379;51.554;6.736;2024-03-23T12:00:51;100371.00;;;9.40
37536;BMP180;23379;51.554;6.736;2024-03-23T12:03:18;100375.00;;;10.50
37536;BMP180;23379;51.554;6.736;2024-03-23T12:05:48;100357.00;;;10.70
37536;BMP180;23379;51.554;6.736;2024-03-23T12:08:30;100376.00;;;10.30
37536;BMP180;23379;51.554;6.736;2024-03-23T12:13:30;100357.00;;;12.40
37536;BMP180;23379;51.554;6.736;2024-03-23T12:16:12;100357.00;;;13.50
37536;BMP180;23379;51.554;6.736;2024-03-23T12:18:40;100341.00;;;13.60
37536;BMP180;23379;51.554;6.736;2024-03-23T12:21:05;100352.00;;;14.60
37536;BMP180;23379;51.554;6.736;2024-03-23T12:23:31;100322.00;;;14.90
37536;BMP180;23379;51.554;6.736;2024-03-23T12:25:57;100359.00;;;14.30
37536;BMP180;23379;51.554;6.736;2024-03-23T12:28:23;100352.00;;;15.40
37536;BMP180;23379;51.554;6.736;2024-03-23T12:30:48;100347.00;;;15.70
37536;BMP180;23379;51.554;6.736;2024-03-23T12:33:14;100332.00;;;14.60
37536;BMP180;23379;51.554;6.736;2024-03-23T12:35:39;100342.00;;;14.40
37536;BMP180;23379;51.554;6.736;2024-03-23T12:38:04;100324.00;;;13.00
37536;BMP180;23379;51.554;6.736;2024-03-23T12:40:30;100340.00;;;12.10
37536;BMP180;23379;51.554;6.736;2024-03-23T12:42:55;100337.00;;;11.70
37536;BMP180;23379;51.554;6.736;2024-03-23T12:45:24;100369.00;;;10.80
37536;BMP180;23379;51.554;6.736;2024-03-23T12:47:49;100368.00;;;9.30
37536;BMP180;23379;51.554;6.736;2024-03-23T12:50:14;100360.00;;;8.70
37536;BMP180;23379;51.554;6.736;2024-03-23T12:52:40;100373.00;;;8.40
37536;BMP180;23379;51.554;6.736;2024-03-23T12:55:05;100372.00;;;8.20
37536;BMP180;23379;51.554;6.736;2024-03-23T12:57:31;100369.00;;;8.20
37536;BMP180;23379;51.554;6.736;2024-03-23T12:59:57;100385.00;;;7.90
37536;BMP180;23379;51.554;6.736;2024-03-23T13:02:22;100389.00;;;7.80
37536;BMP180;23379;51.554;6.736;2024-03-23T13:04:57;100388.00;;;7.60
37536;BMP180;23379;51.554;6.736;2024-03-23T13:07:23;100377.00;;;7.30
37536;BMP180;23379;51.554;6.736;2024-03-23T13:09:52;100377.00;;;7.20
37536;BMP180;23379;51.554;6.736;2024-03-23T13:12:19;100383.00;;;7.30
37536;BMP180;23379;51.554;6.736;2024-03-23T13:14:45;100369.00;;;7.40
37536;BMP180;23379;51.554;6.736;2024-03-23T13:17:11;100364.00;;;7.30
37536;BMP180;23379;51.554;6.736;2024-03-23T13:19:37;100373.00;;;7.30
37536;BMP180;23379;51.554;6.736;2024-03-23T13:22:03;100369.00;;;8.80
37536;BMP180;23379;51.554;6.736;2024-03-23T13:24:29;100355.00;;;9.30
37536;BMP180;23379;51.554;6.736;2024-03-23T13:26:56;100361.00;;;9.30
37536;BMP180;23379;51.554;6.736;2024-03-23T13:29:22;100358.00;;;9.20
37536;BMP180;23379;51.554;6.736;2024-03-23T13:31:48;100370.00;;;8.90
37536;BMP180;23379;51.554;6.736;2024-03-23T13:34:14;100359.00;;;9.30
37536;BMP180;23379;51.554;6.736;2024-03-23T13:36:44;100352.00;;;11.20
37536;BMP180;23379;51.554;6.736;2024-03-23T13:39:09;100359.00;;;13.10
37536;BMP180;23379;51.554;6.736;2024-03-23T13:41:39;100358.00;;;14.30
37536;BMP180;23379;51.554;6.736;2024-03-23T13:44:06;100352.00;;;14.80
37536;BMP180;23379;51.554;6.736;2024-03-23T13:46:31;100343.00;;;14.50
37536;BMP180;23379;51.554;6.736;2024-03-23T13:48:57;100333.00;;;13.60
37536;BMP180;23379;51.554;6.736;2024-03-23T13:51:23;100349.00;;;12.70
37536;BMP180;23379;51.554;6.736;2024-03-23T13:53:50;100339.00;;;12.30
37536;BMP180;23379;51.554;6.736;2024-03-23T13:56:15;100345.00;;;12.00
37536;BMP180;23379;51.554;6.736;2024-03-23T13:58:40;100338.00;;;11.90
37536;BMP180;23379;51.554;6.736;2024-03-23T14:01:10;100338.00;;;12.30
37536;BMP180;23379;51.554;6.736;2024-03-23T14:03:36;100351.00;;;11.50
37536;BMP180;23379;51.554;6.736;2024-03-23T14:06:01;100338.00;;;11.20
37536;BMP180;23379;51.554;6.736;2024-03-23T14:08:28;100347.00;;;11.00
37536;BMP180;23379;51.554;6.736;2024-03-23T14:10:54;100336.00;;;12.20
37536;BMP180;23379;51.554;6.736;2024-03-23T14:13:19;100338.00;;;12.30
37536;BMP180;23379;51.554;6.736;2024-03-23T14:15:45;100335.00;;;12.20
37536;BMP180;23379;51.554;6.736;2024-03-23T14:18:10;100335.00;;;12.00
37536;BMP180;23379;51.554;6.736;2024-03-23T14:20:36;100342.00;;;11.30
37536;BMP180;23379;51.554;6.736;2024-03-23T14:23:01;100336.00;;;10.30
37536;BMP180;23379;51.554;6.736;2024-03-23T14:25:26;100330.00;;;10.60
37536;BMP180;23379;51.554;6.736;2024-03-23T14:27:54;100342.00;;;11.50
37536;BMP180;23379;51.554;6.736;2024-03-23T14:30:20;100345.00;;;12.10
37536;BMP180;23379;51.554;6.736;2024-03-23T14:32:45;100322.00;;;11.70
37536;BMP180;23379;51.554;6.736;2024-03-23T14:35:10;100333.00;;;11.20
37536;BMP180;23379;51.554;6.736;2024-03-23T14:37:37;100315.00;;;11.20
37536;BMP180;23379;51.554;6.736;2024-03-23T14:40:03;100315.00;;;10.80
37536;BMP180;23379;51.554;6.736;2024-03-23T14:42:29;100313.00;;;10.70
37536;BMP180;23379;51.554;6.736;2024-03-23T14:44:56;100295.00;;;10.50
37536;BMP180;23379;51.554;6.736;2024-03-23T14:47:21;100295.00;;;10.20
37536;BMP180;23379;51.554;6.736;2024-03-23T14:49:47;100307.00;;;10.20
37536;BMP180;23379;51.554;6.736;2024-03-23T14:52:15;100295.00;;;9.80
37536;BMP180;23379;51.554;6.736;2024-03-23T14:54:41;100301.00;;;9.60
37536;BMP180;23379;51.554;6.736;2024-03-23T14:57:06;100297.00;;;9.80
37536;BMP180;23379;51.554;6.736;2024-03-23T14:59:34;100290.00;;;9.70
37536;BMP180;23379;51.554;6.736;2024-03-23T15:01:59;100283.00;;;9.60
37536;BMP180;23379;51.554;6.736;2024-03-23T15:04:25;100282.00;;;9.80
37536;BMP180;23379;51.554;6.736;2024-03-23T15:06:50;100274.00;;;10.00
37536;BMP180;23379;51.554;6.736;2024-03-23T15:09:16;100265.00;;;9.90